Time;durP1;ratioP1;P1;durP2;ratioP2;P2;SDS_P1;SDS_P2;PMS_P1;PMS_P2;Temp;Humidity;BMP_temperature;BMP_pressure;BME280_temperature;BME280_humidity;BME280_pressure;Samples;Min_cycle;Max_cycle;Signal;HPM_P1;HPM_P2
2022/05/17 00:02:12;;;;;;;;;;;;;;;-144.99;100.00;52252.44;5036625;22;19925;-76
2022/05/17 00:04:39;;;;;;;;;;;;;;;-144.99;100.00;52232.03;5011304;28;20017;-80
2022/05/17 00:07:05;;;;;;;;;;;;;;;-144.99;100.00;52236.13;5012649;28;20018;-78
2022/05/17 00:09:33;;;;;;;;;;;;;;;-144.99;100.00;52276.88;5017189;28;19924;-78
2022/05/17 00:12:00;;;;;;;;;;;;;;;-144.99;100.00;52297.25;5017004;28;19925;-81
2022/05/17 00:14:26;;;;;;;;;;;;;;;-144.99;100.00;52232.03;5013996;28;19914;-81
2022/05/17 00:16:53;;;;;;;;;;;;;;;-144.99;100.00;52227.97;5016566;28;19913;-80
2022/05/17 00:19:20;;;;;;;;;;;;;;;-144.99;100.00;52213.69;5016733;28;19914;-80
2022/05/17 00:21:47;;;;;;;;;;;;;;;-144.99;100.00;52246.31;5016511;28;19914;-79
2022/05/17 00:24:15;;;;;;;;;;;;;;;-144.99;100.00;52236.13;5012628;28;19926;-76
2022/05/17 00:26:43;;;;;;;;;;;;;;;-144.99;100.00;52240.19;5000956;28;20017;-75
2022/05/17 00:29:09;;;;;;;;;;;;;;;-144.99;100.00;52223.88;5006620;28;19914;-78
2022/05/17 00:31:36;;;;;;;;;;;;;;;-144.99;100.00;52248.34;5015393;28;19925;-77
2022/05/17 00:34:03;;;;;;;;;;;;;;;-144.99;100.00;52276.88;5015668;28;19989;-79
2022/05/17 00:36:29;;;;;;;;;;;;;;;-144.99;100.00;52244.28;5016282;28;19921;-81
2022/05/17 00:38:55;;;;;;;;;;;;;;;-144.99;100.00;52244.28;5015919;28;19914;-83
2022/05/17 00:41:22;;;;;;;;;;;;;;;-144.99;100.00;52211.66;5015857;28;19933;-79
2022/05/17 00:46:39;;;;;;;;;;;;;;;-144.99;100.00;52248.34;5010131;28;19933;-80
2022/05/17 00:49:08;;;;;;;;;;;;;;;-144.99;100.00;52291.16;5015880;28;19956;-79
2022/05/17 00:51:34;;;;;;;;;;;;;;;-144.99;100.00;52260.56;5015693;28;19913;-82
2022/05/17 00:54:02;;;;;;;;;;;;;;;-144.99;100.00;52207.59;5015748;28;20016;-78
2022/05/17 00:56:29;;;;;;;;;;;;;;;-144.99;100.00;52234.09;5015599;28;19932;-83
2022/05/17 00:58:58;;;;;;;;;;;;;;;-144.99;100.00;52248.34;5007268;28;19936;-73
2022/05/17 01:01:26;;;;;;;;;;;;;;;-144.99;100.00;52219.81;4994104;28;19933;-74
2022/05/17 01:03:55;;;;;;;;;;;;;;;-144.99;100.00;52248.34;4993059;28;19925;-72
2022/05/17 01:06:22;;;;;;;;;;;;;;;-144.99;100.00;52256.50;4992967;28;19953;-72
2022/05/17 01:08:49;;;;;;;;;;;;;;;-144.99;100.00;52256.50;4993010;28;19936;-73
2022/05/17 01:11:15;;;;;;;;;;;;;;;-144.99;100.00;52232.03;4992880;28;19926;-76
2022/05/17 01:16:27;;;;;;;;;;;;;;;-144.99;100.00;52234.09;4992498;28;19936;-76
2022/05/17 01:18:54;;;;;;;;;;;;;;;-144.99;100.00;52227.97;4987936;28;19926;-73
2022/05/17 01:21:22;;;;;;;;;;;;;;;-144.99;100.00;52264.66;4992155;28;19926;-73
2022/05/17 01:23:48;;;;;;;;;;;;;;;-144.99;100.00;52264.66;4991797;28;19933;-72
2022/05/17 01:26:16;;;;;;;;;;;;;;;-144.99;100.00;52252.44;4992585;28;20554;-72
2022/05/17 01:28:43;;;;;;;;;;;;;;;-144.99;100.00;52244.28;4992114;28;19929;-73
2022/05/17 01:31:09;;;;;;;;;;;;;;;-144.99;100.00;52252.44;4987627;28;19956;-73
2022/05/17 01:33:37;;;;;;;;;;;;;;;-144.99;100.00;52254.47;4984437;28;19926;-75
2022/05/17 01:36:04;;;;;;;;;;;;;;;-144.99;100.00;52240.19;4992044;28;19948;-73
2022/05/17 01:38:32;;;;;;;;;;;;;;;-144.99;100.00;52240.19;4991949;28;20415;-76
2022/05/17 01:40:58;;;;;;;;;;;;;;;-144.99;100.00;52211.66;4993045;28;19930;-75
2022/05/17 01:43:24;;;;;;;;;;;;;;;-144.99;100.00;52232.03;4991119;28;20444;-75
2022/05/17 01:45:51;;;;;;;;;;;;;;;-144.99;100.00;52268.72;4992566;28;19933;-75
2022/05/17 01:48:17;;;;;;;;;;;;;;;-144.99;100.00;52270.78;4991203;28;20002;-76
2022/05/17 01:50:43;;;;;;;;;;;;;;;-144.99;100.00;52227.97;4992812;28;19937;-75
2022/05/17 01:53:10;;;;;;;;;;;;;;;-144.99;100.00;52223.88;5009053;28;19997;-77
2022/05/17 01:55:38;;;;;;;;;;;;;;;-144.99;100.00;52244.28;5002175;28;20002;-76
2022/05/17 01:58:04;;;;;;;;;;;;;;;-144.99;100.00;52236.13;4992426;28;20150;-75
2022/05/17 02:00:31;;;;;;;;;;;;;;;-144.99;100.00;52209.63;4992017;28;19940;-77
2022/05/17 02:02:58;;;;;;;;;;;;;;;-144.99;100.00;52252.44;4991346;28;19932;-75
2022/05/17 02:05:26;;;;;;;;;;;;;;;-144.99;100.00;52232.03;4990933;28;20029;-77
2022/05/17 02:07:52;;;;;;;;;;;;;;;-144.99;100.00;52219.81;4991392;28;19932;-76
2022/05/17 02:10:19;;;;;;;;;;;;;;;-144.99;100.00;52209.63;4990983;28;19941;-77
2022/05/17 02:12:47;;;;;;;;;;;;;;;-144.99;100.00;52252.44;4991452;28;19933;-78
2022/05/17 02:15:13;;;;;;;;;;;;;;;-144.99;100.00;52232.03;4991331;28;19925;-78
2022/05/17 02:17:40;;;;;;;;;;;;;;;-144.99;100.00;52256.50;4996437;28;19926;-78
2022/05/17 02:20:08;;;;;;;;;;;;;;;-144.99;100.00;52244.28;4997304;28;19940;-77
2022/05/17 02:22:34;;;;;;;;;;;;;;;-144.99;100.00;52256.50;4998021;28;19951;-75
2022/05/17 02:25:00;;;;;;;;;;;;;;;-144.99;100.00;52223.88;4997736;28;19925;-75
2022/05/17 02:27:27;;;;;;;;;;;;;;;-144.99;100.00;52215.75;4994859;28;19937;-75
2022/05/17 02:29:55;;;;;;;;;;;;;;;-144.99;100.00;52223.88;4995010;28;19938;-75
2022/05/17 02:32:22;;;;;;;;;;;;;;;-144.99;100.00;52227.97;4991487;28;19975;-75
2022/05/17 02:34:48;;;;;;;;;;;;;;;-144.99;100.00;52232.03;4990713;28;19926;-77
2022/05/17 02:37:15;;;;;;;;;;;;;;;-144.99;100.00;52238.16;4990449;28;19953;-76
2022/05/17 02:39:41;;;;;;;;;;;;;;;-144.99;100.00;52252.44;4990844;28;19992;-76
2022/05/17 02:42:09;;;;;;;;;;;;;;;-144.99;100.00;52207.59;4990395;28;19925;-76
2022/05/17 02:44:35;;;;;;;;;;;;;;;-144.99;100.00;52236.13;4990330;28;20005;-74
2022/05/17 02:47:03;;;;;;;;;;;;;;;-144.99;100.00;52215.75;4991204;28;19936;-74
2022/05/17 02:49:29;;;;;;;;;;;;;;;-144.99;100.00;52260.56;4992754;28;19925;-75
2022/05/17 02:51:56;;;;;;;;;;;;;;;-144.99;100.00;52199.44;4994388;28;19926;-75
2022/05/17 02:54:22;;;;;;;;;;;;;;;-144.99;100.00;52207.59;4995972;28;19930;-76
2022/05/17 02:56:49;;;;;;;;;;;;;;;-144.99;100.00;52227.97;4994438;28;19926;-76
2022/05/17 02:59:18;;;;;;;;;;;;;;;-144.99;100.00;52213.69;4993334;28;19932;-75
2022/05/17 03:01:44;;;;;;;;;;;;;;;-144.99;100.00;52199.44;4993588;28;20016;-76
2022/05/17 03:04:13;;;;;;;;;;;;;;;-144.99;100.00;52232.03;4993285;28;19944;-75
2022/05/17 03:06:39;;;;;;;;;;;;;;;-144.99;100.00;52219.81;4993540;28;20370;-74
2022/05/17 03:09:06;;;;;;;;;;;;;;;-144.99;100.00;52203.50;4993914;28;19926;-75
2022/05/17 03:11:32;;;;;;;;;;;;;;;-144.99;100.00;52238.16;4993486;28;19926;-75
2022/05/17 03:13:58;;;;;;;;;;;;;;;-144.99;100.00;52221.84;4992810;28;19925;-76
2022/05/17 03:16:28;;;;;;;;;;;;;;;-144.99;100.00;52266.69;4993444;28;19941;-76
2022/05/17 03:18:55;;;;;;;;;;;;;;;-144.99;100.00;52242.22;4993189;28;19926;-76
2022/05/17 03:21:22;;;;;;;;;;;;;;;-144.99;100.00;52223.88;4993435;28;19942;-75
2022/05/17 03:23:50;;;;;;;;;;;;;;;-144.99;100.00;52236.13;4995335;28;19926;-75
2022/05/17 03:26:16;;;;;;;;;;;;;;;-144.99;100.00;52266.69;4993050;28;19926;-75
2022/05/17 03:28:43;;;;;;;;;;;;;;;-144.99;100.00;52252.44;4992594;28;19933;-75
2022/05/17 03:31:09;;;;;;;;;;;;;;;-144.99;100.00;52230.00;4986597;28;19949;-75
2022/05/17 03:33:36;;;;;;;;;;;;;;;-144.99;100.00;52215.75;4992706;28;19953;-75
2022/05/17 03:36:02;;;;;;;;;;;;;;;-144.99;100.00;52248.34;4992907;28;19925;-74
2022/05/17 03:38:30;;;;;;;;;;;;;;;-144.99;100.00;52244.28;4992651;28;19926;-76
2022/05/17 03:40:58;;;;;;;;;;;;;;;-144.99;100.00;52293.19;4992332;28;19925;-76
2022/05/17 03:43:24;;;;;;;;;;;;;;;-144.99;100.00;52244.28;4992047;28;20412;-76
2022/05/17 03:45:51;;;;;;;;;;;;;;;-144.99;100.00;52254.47;4993207;28;19933;-75
2022/05/17 03:48:17;;;;;;;;;;;;;;;-144.99;100.00;52236.13;4992195;28;19933;-74
2022/05/17 03:50:45;;;;;;;;;;;;;;;-144.99;100.00;52264.66;4992181;28;20306;-74
2022/05/17 03:53:12;;;;;;;;;;;;;;;-144.99;100.00;52252.44;4989409;28;19940;-74
2022/05/17 03:55:39;;;;;;;;;;;;;;;-144.99;100.00;52264.66;4992517;28;19933;-74
2022/05/17 03:58:06;;;;;;;;;;;;;;;-144.99;100.00;52272.81;4991547;28;19925;-74
2022/05/17 04:00:32;;;;;;;;;;;;;;;-144.99;100.00;52223.88;4992881;28;19933;-74
2022/05/17 04:02:59;;;;;;;;;;;;;;;-144.99;100.00;52260.56;4991494;28;19933;-75
2022/05/17 04:05:25;;;;;;;;;;;;;;;-144.99;100.00;52236.13;4992523;28;19930;-75
2022/05/17 04:07:51;;;;;;;;;;;;;;;-144.99;100.00;52260.56;4991919;28;19934;-77
2022/05/17 04:10:18;;;;;;;;;;;;;;;-144.99;100.00;52203.50;4992354;28;19932;-76
2022/05/17 04:12:46;;;;;;;;;;;;;;;-144.99;100.00;52240.19;4992250;28;20007;-76
2022/05/17 04:15:14;;;;;;;;;;;;;;;-144.99;100.00;52278.91;4992187;28;19945;-76
2022/05/17 04:17:40;;;;;;;;;;;;;;;-144.99;100.00;52264.66;4992433;28;19931;-74
2022/05/17 04:20:07;;;;;;;;;;;;;;;-144.99;100.00;52211.66;4991739;28;19937;-73
2022/05/17 04:22:34;;;;;;;;;;;;;;;-144.99;100.00;52256.50;4991826;28;19949;-75
2022/05/17 04:25:00;;;;;;;;;;;;;;;-144.99;100.00;52238.16;4992104;28;19941;-76
2022/05/17 04:27:27;;;;;;;;;;;;;;;-144.99;100.00;52232.03;4989745;28;20002;-75
2022/05/17 04:29:54;;;;;;;;;;;;;;;-144.99;100.00;52272.81;4991698;28;19925;-74
2022/05/17 04:32:21;;;;;;;;;;;;;;;-144.99;100.00;52252.44;4991541;28;19934;-74
2022/05/17 04:34:47;;;;;;;;;;;;;;;-144.99;100.00;52219.81;4991464;28;19926;-74
2022/05/17 04:37:15;;;;;;;;;;;;;;;-144.99;100.00;52227.97;4992401;28;19937;-74
2022/05/17 04:39:42;;;;;;;;;;;;;;;-144.99;100.00;52293.19;4992102;28;19988;-75
2022/05/17 04:42:08;;;;;;;;;;;;;;;-144.99;100.00;52223.88;4992537;28;19972;-74
2022/05/17 04:44:35;;;;;;;;;;;;;;;-144.99;100.00;52260.56;4992816;28;19949;-75
2022/05/17 04:47:03;;;;;;;;;;;;;;;-144.99;100.00;52223.88;5005976;28;19926;-75
2022/05/17 04:49:30;;;;;;;;;;;;;;;-144.99;100.00;52215.75;5001981;28;20376;-75
2022/05/17 04:51:57;;;;;;;;;;;;;;;-144.99;100.00;52260.56;4991942;28;19925;-76
2022/05/17 04:54:24;;;;;;;;;;;;;;;-144.99;100.00;52215.75;4991233;28;19930;-75
2022/05/17 04:56:52;;;;;;;;;;;;;;;-144.99;100.00;52252.44;4991785;28;19933;-73
2022/05/17 04:59:19;;;;;;;;;;;;;;;-144.99;100.00;52254.47;4991365;28;19925;-74
2022/05/17 05:01:46;;;;;;;;;;;;;;;-144.99;100.00;52221.84;4991318;28;20341;-74
2022/05/17 05:04:13;;;;;;;;;;;;;;;-144.99;100.00;52264.66;4990565;28;19940;-71
2022/05/17 05:06:40;;;;;;;;;;;;;;;-144.99;100.00;52248.34;4990325;28;20396;-72
2022/05/17 05:09:07;;;;;;;;;;;;;;;-144.99;100.00;52238.16;4991370;28;20013;-71
2022/05/17 05:11:34;;;;;;;;;;;;;;;-144.99;100.00;52230.00;4991319;28;19956;-71
2022/05/17 05:14:00;;;;;;;;;;;;;;;-144.99;100.00;52227.97;4991126;28;19969;-71
2022/05/17 05:16:27;;;;;;;;;;;;;;;-144.99;100.00;52234.09;4301244;28;10020726;-74
2022/05/17 05:18:53;;;;;;;;;;;;;;;-144.99;100.00;52244.28;4986761;28;19930;-71
2022/05/17 05:21:21;;;;;;;;;;;;;;;-144.99;100.00;52240.19;4989054;28;20049;-71
2022/05/17 05:23:47;;;;;;;;;;;;;;;-144.99;100.00;52162.75;4988560;28;19948;-72
2022/05/17 05:26:14;;;;;;;;;;;;;;;-144.99;100.00;52232.03;4988716;28;19930;-72
2022/05/17 05:28:41;;;;;;;;;;;;;;;-144.99;100.00;52223.88;4988693;28;20308;-73
2022/05/17 05:31:08;;;;;;;;;;;;;;;-144.99;100.00;52223.88;4995249;28;19980;-75
2022/05/17 05:33:35;;;;;;;;;;;;;;;-144.99;100.00;52223.88;4994218;28;19997;-75
2022/05/17 05:36:02;;;;;;;;;;;;;;;-144.99;100.00;52236.13;4993116;28;19929;-73
2022/05/17 05:38:30;;;;;;;;;;;;;;;-144.99;100.00;52236.13;4996339;28;19933;-77
2022/05/17 05:40:56;;;;;;;;;;;;;;;-144.99;100.00;52254.47;4990742;28;19929;-75
2022/05/17 05:43:23;;;;;;;;;;;;;;;-144.99;100.00;52227.97;4987051;28;20025;-74
2022/05/17 05:45:49;;;;;;;;;;;;;;;-144.99;100.00;52227.97;4987629;28;19937;-75
2022/05/17 05:48:16;;;;;;;;;;;;;;;-144.99;100.00;52223.88;4987772;28;19926;-73
2022/05/17 05:50:42;;;;;;;;;;;;;;;-144.99;100.00;52217.78;4987886;28;20564;-75
2022/05/17 05:53:10;;;;;;;;;;;;;;;-144.99;100.00;52244.28;4987237;28;20285;-75
2022/05/17 05:55:38;;;;;;;;;;;;;;;-144.99;100.00;52219.81;4988324;28;19929;-76
2022/05/17 05:58:05;;;;;;;;;;;;;;;-144.99;100.00;52215.75;4987600;28;20285;-74
2022/05/17 06:00:33;;;;;;;;;;;;;;;-144.99;100.00;52209.63;4988678;28;19939;-75
2022/05/17 06:02:59;;;;;;;;;;;;;;;-144.99;100.00;52215.75;4987261;28;19930;-79
2022/05/17 06:05:26;;;;;;;;;;;;;;;-144.99;100.00;52219.81;4987600;28;20313;-73
2022/05/17 06:07:53;;;;;;;;;;;;;;;-144.99;100.00;52207.59;4988559;28;19930;-73
2022/05/17 06:10:20;;;;;;;;;;;;;;;-144.99;100.00;52234.09;4987645;28;19930;-74
2022/05/17 06:12:48;;;;;;;;;;;;;;;-144.99;100.00;52217.78;4992161;28;19930;-73
2022/05/17 06:15:15;;;;;;;;;;;;;;;-144.99;100.00;52236.13;4992232;28;20381;-74
2022/05/17 06:17:41;;;;;;;;;;;;;;;-144.99;100.00;52225.94;4990619;28;20246;-73
2022/05/17 06:20:09;;;;;;;;;;;;;;;-144.99;100.00;52230.00;4991430;28;19925;-74
2022/05/17 06:22:35;;;;;;;;;;;;;;;-144.99;100.00;52213.69;4992940;28;20417;-75
2022/05/17 06:25:02;;;;;;;;;;;;;;;-144.99;100.00;52256.50;4989672;28;19989;-74
2022/05/17 06:27:28;;;;;;;;;;;;;;;-144.99;100.00;52272.81;4988434;28;19926;-75
2022/05/17 06:29:56;;;;;;;;;;;;;;;-144.99;100.00;52199.44;4987858;28;19936;-74
2022/05/17 06:32:22;;;;;;;;;;;;;;;-144.99;100.00;52232.03;4985308;28;20246;-76
2022/05/17 06:34:48;;;;;;;;;;;;;;;-144.99;100.00;52244.28;4987912;28;20436;-75
2022/05/17 06:37:15;;;;;;;;;;;;;;;-144.99;100.00;52227.97;4987984;28;19937;-73
2022/05/17 06:39:42;;;;;;;;;;;;;;;-144.99;100.00;52232.03;4987666;28;19930;-73
2022/05/17 06:42:09;;;;;;;;;;;;;;;-144.99;100.00;52232.03;4987582;28;19930;-73
2022/05/17 06:44:37;;;;;;;;;;;;;;;-144.99;100.00;52207.59;4987841;28;20064;-74
2022/05/17 06:47:05;;;;;;;;;;;;;;;-144.99;100.00;52223.88;4987119;28;20250;-74
2022/05/17 06:49:31;;;;;;;;;;;;;;;-144.99;100.00;52179.06;4985612;28;19936;-74
2022/05/17 06:52:01;;;;;;;;;;;;;;;-144.99;100.00;52248.34;4988287;28;19987;-76
2022/05/17 06:54:28;;;;;;;;;;;;;;;-144.99;100.00;52248.34;4987557;28;19933;-74
2022/05/17 06:56:54;;;;;;;;;;;;;;;-144.99;100.00;52217.78;4987806;28;19934;-75
2022/05/17 06:59:21;;;;;;;;;;;;;;;-144.99;100.00;52199.44;4994041;28;19929;-78
2022/05/17 07:01:49;;;;;;;;;;;;;;;-144.99;100.00;52211.66;4998483;28;19930;-78
2022/05/17 07:04:17;;;;;;;;;;;;;;;-144.99;100.00;52219.81;5003728;28;19926;-75
2022/05/17 07:06:43;;;;;;;;;;;;;;;-144.99;100.00;52238.16;5002141;28;19933;-77
2022/05/17 07:09:12;;;;;;;;;;;;;;;-144.99;100.00;52203.50;5008052;28;20032;-76
2022/05/17 07:14:22;;;;;;;;;;;;;;;-144.99;100.00;52264.66;5007176;28;19952;-75
2022/05/17 07:16:48;;;;;;;;;;;;;;;-144.99;100.00;52213.69;5006578;28;19914;-81
2022/05/17 07:19:14;;;;;;;;;;;;;;;-144.99;100.00;52203.50;5007950;28;19930;-75
2022/05/17 07:21:42;;;;;;;;;;;;;;;-144.99;100.00;52199.44;5008045;28;19945;-77
2022/05/17 07:24:09;;;;;;;;;;;;;;;-144.99;100.00;52199.44;5007835;28;20013;-78
2022/05/17 07:26:35;;;;;;;;;;;;;;;-144.99;100.00;52248.34;5008375;28;19941;-76
2022/05/17 07:29:01;;;;;;;;;;;;;;;-144.99;100.00;52195.34;5009045;28;19914;-78
2022/05/17 07:31:27;;;;;;;;;;;;;;;-144.99;100.00;52207.59;5007916;28;19988;-77
2022/05/17 07:33:54;;;;;;;;;;;;;;;-144.99;100.00;52199.44;5009882;28;19938;-79
2022/05/17 07:36:20;;;;;;;;;;;;;;;-144.99;100.00;52170.91;5011444;28;19982;-79
2022/05/17 07:38:48;;;;;;;;;;;;;;;-144.99;100.00;52227.97;5013318;28;19914;-79
2022/05/17 07:41:14;;;;;;;;;;;;;;;-144.99;100.00;52246.31;5014989;28;19921;-79
2022/05/17 07:43:41;;;;;;;;;;;;;;;-144.99;100.00;52240.19;5014452;28;19933;-79
2022/05/17 07:46:07;;;;;;;;;;;;;;;-144.99;100.00;52191.28;5013087;28;19985;-77
2022/05/17 07:48:34;;;;;;;;;;;;;;;-144.99;100.00;52191.28;5013549;28;19945;-79
2022/05/17 07:51:00;;;;;;;;;;;;;;;-144.99;100.00;52195.34;5015588;28;19941;-78
2022/05/17 07:53:27;;;;;;;;;;;;;;;-144.99;100.00;52232.03;5011985;28;20188;-79
2022/05/17 07:55:54;;;;;;;;;;;;;;;-144.99;100.00;52179.06;5014071;28;19940;-78
2022/05/17 07:58:21;;;;;;;;;;;;;;;-144.99;100.00;52199.44;5014343;28;19934;-79
2022/05/17 08:00:47;;;;;;;;;;;;;;;-144.99;100.00;52215.75;5007315;28;19988;-77
2022/05/17 08:03:16;;;;;;;;;;;;;;;-144.99;100.00;52199.44;4996332;28;19934;-75
2022/05/17 08:05:42;;;;;;;;;;;;;;;-144.99;100.00;52199.44;5001710;28;19930;-80
2022/05/17 08:08:08;;;;;;;;;;;;;;;-144.99;100.00;52219.81;5013757;28;19917;-80
2022/05/17 08:10:35;;;;;;;;;;;;;;;-144.99;100.00;52187.19;5014865;28;19913;-80
2022/05/17 08:13:03;;;;;;;;;;;;;;;-144.99;100.00;52205.53;5014318;28;20061;-79
2022/05/17 08:15:30;;;;;;;;;;;;;;;-144.99;100.00;52191.28;5014595;28;19933;-79
2022/05/17 08:17:57;;;;;;;;;;;;;;;-144.99;100.00;52215.75;5013186;28;19925;-79
2022/05/17 08:20:23;;;;;;;;;;;;;;;-144.99;100.00;52227.97;5014709;28;19940;-81
2022/05/17 08:22:49;;;;;;;;;;;;;;;-144.99;100.00;52199.44;5014284;28;19973;-77
2022/05/17 08:28:02;;;;;;;;;;;;;;;-144.99;100.00;52211.66;5014420;28;19940;-77
2022/05/17 08:30:31;;;;;;;;;;;;;;;-144.99;100.00;52166.81;5014460;28;19914;-78
2022/05/17 08:33:17;;;;;;;;;;;;;;;-144.99;100.00;52166.81;5013530;28;19926;-79
2022/05/17 08:35:45;;;;;;;;;;;;;;;-144.99;100.00;52162.75;5014622;28;19932;-80
2022/05/17 08:38:12;;;;;;;;;;;;;;;-144.99;100.00;52179.06;5014487;28;19914;-79
2022/05/17 08:40:45;;;;;;;;;;;;;;;-144.99;100.00;52158.66;5014946;28;20016;-81
2022/05/17 08:43:17;;;;;;;;;;;;;;;-144.99;100.00;52164.78;4989844;28;19980;-74
2022/05/17 08:45:53;;;;;;;;;;;;;;;-144.99;100.00;52211.66;4984530;28;20029;-75
2022/05/17 08:48:20;;;;;;;;;;;;;;;-144.99;100.00;52191.28;4989150;28;19929;-74
2022/05/17 08:50:49;;;;;;;;;;;;;;;-144.99;100.00;52199.44;4989179;28;19926;-73
2022/05/17 08:53:17;;;;;;;;;;;;;;;-144.99;100.00;52227.97;4989058;28;20397;-76
2022/05/17 08:55:44;;;;;;;;;;;;;;;-144.99;100.00;52146.44;4990193;28;19926;-76
2022/05/17 08:58:14;;;;;;;;;;;;;;;-144.99;100.00;52191.28;4989745;28;19936;-73
2022/05/17 09:00:42;;;;;;;;;;;;;;;-144.99;98.71;52195.34;4985226;28;19988;-76
2022/05/17 09:03:14;;;;;;;;;;;;;;;-144.99;97.17;52154.59;4988281;28;19936;-76
2022/05/17 09:05:46;;;;;;;;;;;;;;;-144.99;96.35;52158.66;4989340;28;19948;-77
2022/05/17 09:08:15;;;;;;;;;;;;;;;-144.99;94.85;52154.59;4989923;28;19930;-77
2022/05/17 09:10:43;;;;;;;;;;;;;;;-144.99;92.77;52134.22;4990436;28;19933;-76
2022/05/17 09:13:15;;;;;;;;;;;;;;;-144.99;91.07;52162.75;4990098;28;19937;-77
2022/05/17 09:15:43;;;;;;;;;;;;;;;-144.99;90.27;52156.63;4983843;28;19937;-78
2022/05/17 09:18:11;;;;;;;;;;;;;;;-144.99;88.76;52179.06;4987034;28;19929;-75
2022/05/17 09:20:39;;;;;;;;;;;;;;;-144.99;88.90;52170.91;4989801;28;19961;-74
2022/05/17 09:23:06;;;;;;;;;;;;;;;-144.99;88.27;52158.66;4988983;28;19949;-74
2022/05/17 09:25:45;;;;;;;;;;;;;;;-144.99;86.92;52174.97;4990104;28;19956;-75
2022/05/17 09:28:14;;;;;;;;;;;;;;;-144.99;85.47;52170.91;4988666;28;19926;-75
2022/05/17 09:30:40;;;;;;;;;;;;;;;-144.99;85.05;52179.06;4989834;28;19944;-76
2022/05/17 09:33:08;;;;;;;;;;;;;;;-144.99;85.53;52146.44;4988624;28;19936;-74
2022/05/17 09:35:40;;;;;;;;;;;;;;;-144.99;86.52;52174.97;4989226;28;19940;-74
2022/05/17 09:38:07;;;;;;;;;;;;;;;-144.99;86.94;52170.91;4989623;28;20337;-73
2022/05/17 09:40:36;;;;;;;;;;;;;;;-144.99;87.31;52174.97;4992245;28;20211;-74
2022/05/17 09:43:04;;;;;;;;;;;;;;;-144.99;87.46;52181.09;4991528;28;19933;-72
2022/05/17 09:45:40;;;;;;;;;;;;;;;-144.99;87.55;52221.84;4990906;28;20088;-73
2022/05/17 09:48:07;;;;;;;;;;;;;;;-144.99;87.69;52162.75;4988868;28;19930;-73
2022/05/17 09:53:23;;;;;;;;;;;;;;;-144.99;86.84;52203.50;4988906;28;20040;-74
2022/05/17 09:55:50;;;;;;;;;;;;;;;-144.99;86.19;52195.34;4988618;28;20590;-74
2022/05/17 09:58:29;;;;;;;;;;;;;;;-144.99;86.76;52179.06;4988123;28;19930;-74
2022/05/17 10:00:56;;;;;;;;;;;;;;;-144.99;87.35;52227.97;4987787;28;19930;-75
2022/05/17 10:03:28;;;;;;;;;;;;;;;-144.99;87.50;52177.00;4987821;28;20365;-76
2022/05/17 10:05:57;;;;;;;;;;;;;;;-144.99;87.74;52191.28;4987119;28;20013;-75
2022/05/17 10:08:30;;;;;;;;;;;;;;;-144.99;87.25;52166.81;4987609;28;20313;-74
2022/05/17 10:11:02;;;;;;;;;;;;;;;-144.99;87.39;52183.13;4988306;28;19929;-75
2022/05/17 10:13:32;;;;;;;;;;;;;;;-144.99;86.48;52185.16;4987854;28;19926;-76
2022/05/17 10:16:02;;;;;;;;;;;;;;;-144.99;85.99;52174.97;4988286;28;19934;-76
2022/05/17 10:18:32;;;;;;;;;;;;;;;-144.99;85.70;52166.81;4986466;28;19929;-74
2022/05/17 10:21:00;;;;;;;;;;;;;;;-144.99;84.80;52162.75;4988012;28;19937;-74
2022/05/17 10:23:30;;;;;;;;;;;;;;;-144.99;84.18;52187.19;4986431;28;20230;-75
2022/05/17 10:26:00;;;;;;;;;;;;;;;-144.99;84.57;52211.66;4988429;28;19933;-74
2022/05/17 10:28:31;;;;;;;;;;;;;;;-144.99;84.58;52158.66;4987780;28;19930;-75
2022/05/17 10:31:04;;;;;;;;;;;;;;;-144.99;83.87;52174.97;4988670;28;19929;-76
2022/05/17 10:33:33;;;;;;;;;;;;;;;-144.99;84.03;52195.34;4988072;28;19930;-74
2022/05/17 10:36:02;;;;;;;;;;;;;;;-144.99;84.24;52174.97;4988786;28;20361;-74
2022/05/17 10:38:33;;;;;;;;;;;;;;;-144.99;83.24;52150.53;4999470;28;19937;-78
2022/05/17 10:41:00;;;;;;;;;;;;;;;-144.99;83.10;52166.81;5002088;28;20017;-75
2022/05/17 10:43:29;;;;;;;;;;;;;;;-144.99;83.30;52166.81;4987397;28;19972;-76
2022/05/17 10:45:57;;;;;;;;;;;;;;;-144.99;84.09;52142.38;4987535;28;19937;-74
2022/05/17 10:48:33;;;;;;;;;;;;;;;-144.99;83.83;52187.19;4987695;28;19926;-74
2022/05/17 10:51:04;;;;;;;;;;;;;;;-144.99;83.96;52187.19;4988381;28;19930;-79
2022/05/17 10:53:36;;;;;;;;;;;;;;;-144.99;83.11;52195.34;4986065;28;19933;-79
2022/05/17 10:56:07;;;;;;;;;;;;;;;-144.99;82.70;52189.25;4987695;28;20393;-75
2022/05/17 10:58:43;;;;;;;;;;;;;;;-144.99;83.06;52179.06;4988001;28;19979;-77
2022/05/17 11:01:14;;;;;;;;;;;;;;;-144.99;82.95;52211.66;4991461;28;19926;-74
2022/05/17 11:03:51;;;;;;;;;;;;;;;-144.99;83.69;52199.44;4995781;28;20342;-73
2022/05/17 11:06:21;;;;;;;;;;;;;;;-144.99;84.07;52158.66;4993621;28;19930;-75
2022/05/17 11:08:52;;;;;;;;;;;;;;;-144.99;84.03;52179.06;4994041;28;19930;-77
2022/05/17 11:11:29;;;;;;;;;;;;;;;-144.99;83.48;52195.34;4994141;28;19926;-75
2022/05/17 11:13:57;;;;;;;;;;;;;;;-144.99;83.50;52174.97;4991986;28;19939;-75
2022/05/17 11:16:27;;;;;;;;;;;;;;;-144.99;83.20;52146.44;4989884;28;19926;-77
2022/05/17 11:18:58;;;;;;;;;;;;;;;-144.99;83.02;52191.28;4987769;28;19940;-76
2022/05/17 11:21:27;;;;;;;;;;;;;;;-144.99;82.26;52179.06;4992669;28;19929;-75
2022/05/17 11:23:55;;;;;;;;;;;;;;;-144.99;81.79;52187.19;4991894;28;19926;-75
2022/05/17 11:26:42;;;;;;;;;;;;;;;-144.99;81.67;52183.13;4992021;28;19934;-76
2022/05/17 11:29:15;;;;;;;;;;;;;;;-144.99;81.30;52189.25;4992345;28;19932;-74
2022/05/17 11:31:48;;;;;;;;;;;;;;;-144.99;81.44;52195.34;4992046;28;20045;-76
2022/05/17 11:34:26;;;;;;;;;;;;;;;-144.99;81.38;52203.50;4990797;28;19925;-76
2022/05/17 11:36:53;;;;;;;;;;;;;;;-144.99;80.37;52183.13;4979660;28;20025;-75
2022/05/17 11:39:41;;;;;;;;;;;;;;;-144.99;80.51;52215.75;4991381;28;20385;-76
2022/05/17 11:42:09;;;;;;;;;;;;;;;-144.99;80.55;52209.63;4991223;28;19983;-76
2022/05/17 11:44:41;;;;;;;;;;;;;;;-144.99;79.85;52215.75;4991701;28;20408;-76
2022/05/17 11:47:26;;;;;;;;;;;;;;;-144.99;80.36;52203.50;4992511;28;20404;-74
2022/05/17 11:50:14;;;;;;;;;;;;;;;-144.99;81.01;52211.66;4988659;28;19930;-75
2022/05/17 11:52:40;;;;;;;;;;;;;;;-144.99;82.05;52207.59;4987717;28;19930;-75
2022/05/17 11:55:08;;;;;;;;;;;;;;;-144.99;82.53;52199.44;4991176;28;19929;-77
2022/05/17 11:57:55;;;;;;;;;;;;;;;-144.99;82.97;52219.81;4991042;28;19930;-76
2022/05/17 12:00:32;;;;;;;;;;;;;;;-144.99;83.46;52205.53;4983152;28;20423;-75
2022/05/17 12:02:59;;;;;;;;;;;;;;;-144.99;83.69;52227.97;4979933;28;19937;-74
2022/05/17 12:05:43;;;;;;;;;;;;;;;-144.99;83.31;52183.13;4980122;28;20062;-77
2022/05/17 12:08:36;;;;;;;;;;;;;;;-144.99;83.68;52213.69;4982512;28;20309;-74
2022/05/17 12:11:20;;;;;;;;;;;;;;;-144.99;84.04;52203.50;4958824;28;19932;-74
2022/05/17 12:13:50;;;;;;;;;;;;;;;-144.99;84.20;52191.28;4990918;28;19950;-75
2022/05/17 12:16:18;;;;;;;;;;;;;;;-144.99;84.24;52177.00;4989670;28;19934;-75
2022/05/17 12:18:46;;;;;;;;;;;;;;;-144.99;84.21;52217.78;4985638;28;19953;-75
2022/05/17 12:21:33;;;;;;;;;;;;;;;-144.99;84.16;52238.16;4991643;28;19973;-75
2022/05/17 12:24:06;;;;;;;;;;;;;;;-144.99;82.95;52230.00;4984689;28;19929;-74
2022/05/17 12:26:43;;;;;;;;;;;;;;;-144.99;82.92;52203.50;4990330;28;20429;-78
2022/05/17 12:31:58;;;;;;;;;;;;;;;-144.99;82.28;52174.97;4987030;28;19972;-75
2022/05/17 12:34:24;;;;;;;;;;;;;;;-144.99;81.74;52187.19;4990647;28;19937;-75
2022/05/17 12:36:50;;;;;;;;;;;;;;;-144.99;80.83;52191.28;4990530;28;20326;-75
2022/05/17 12:45:01;;;;;;;;;;;;;;;-144.99;79.20;52170.91;4989832;28;19986;-75
2022/05/17 12:47:29;;;;;;;;;;;;;;;-144.99;78.40;52162.75;4990228;28;19926;-75
2022/05/17 12:49:57;;;;;;;;;;;;;;;-144.99;78.30;52166.81;4990572;28;19934;-74